createdAt,value
2022-08-01T00:00:47.981Z,18.61
2022-08-01T00:03:21.199Z,18.58
2022-08-01T00:06:01.827Z,18.56
2022-08-01T00:08:35.201Z,18.54
2022-08-01T00:11:10.234Z,18.48
2022-08-01T00:13:43.511Z,18.45
2022-08-01T00:16:17.452Z,18.42
2022-08-01T00:18:50.741Z,18.38
2022-08-01T00:21:24.201Z,18.33
2022-08-01T00:23:57.393Z,18.29
2022-08-01T00:26:30.683Z,18.27
2022-08-01T00:29:03.809Z,18.31
2022-08-01T00:31:38.713Z,18.33
2022-08-01T00:34:12.006Z,18.35
2022-08-01T00:36:45.271Z,18.36
2022-08-01T00:39:18.563Z,18.39
2022-08-01T00:41:59.820Z,18.41
2022-08-01T00:44:27.008Z,18.44
2022-08-01T00:47:00.324Z,18.41
2022-08-01T00:49:33.890Z,18.39
2022-08-01T00:52:08.778Z,18.33
2022-08-01T00:54:43.052Z,18.29
2022-08-01T00:57:16.290Z,18.25
2022-08-01T00:59:51.507Z,18.22
2022-08-01T01:02:25.967Z,18.19
2022-08-01T01:05:00.139Z,18.07
2022-08-01T01:07:38.646Z,17.98
2022-08-01T01:10:16.835Z,17.86
2022-08-01T01:12:54.037Z,17.72
2022-08-01T01:15:30.797Z,17.61
2022-08-01T01:18:07.324Z,17.53
2022-08-01T01:20:43.038Z,17.49
2022-08-01T01:23:39.705Z,17.45
2022-08-01T01:26:22.183Z,17.40
2022-08-01T01:29:13.249Z,17.40
2022-08-01T01:31:50.710Z,17.40
2022-08-01T01:34:26.220Z,17.34
2022-08-01T01:37:02.018Z,17.29
2022-08-01T01:39:37.909Z,17.17
2022-08-01T01:42:11.918Z,17.24
2022-08-01T01:44:48.793Z,17.21
2022-08-01T01:47:22.779Z,17.18
2022-08-01T01:49:59.109Z,17.13
2022-08-01T01:52:36.418Z,17.10
2022-08-01T01:55:11.561Z,17.04
2022-08-01T01:57:46.913Z,16.99
2022-08-01T02:00:20.837Z,16.98
2022-08-01T02:02:56.606Z,16.99
2022-08-01T02:05:31.134Z,17.05
2022-08-01T02:08:06.216Z,17.07
2022-08-01T02:10:45.322Z,17.09
2022-08-01T02:13:20.333Z,17.10
2022-08-01T02:15:59.475Z,17.11
2022-08-01T02:18:30.043Z,17.16
2022-08-01T02:21:06.017Z,17.20
2022-08-01T02:23:41.438Z,17.20
2022-08-01T02:26:18.542Z,17.18
2022-08-01T02:28:55.643Z,17.18
2022-08-01T02:31:31.084Z,17.18
2022-08-01T02:34:06.944Z,17.18
2022-08-01T02:36:40.910Z,17.18
2022-08-01T02:39:16.577Z,17.21
2022-08-01T02:41:52.479Z,17.27
2022-08-01T02:44:29.278Z,17.34
2022-08-01T02:47:05.949Z,17.38
2022-08-01T02:49:42.527Z,17.37
2022-08-01T02:52:20.646Z,17.43
2022-08-01T02:54:57.893Z,17.54
2022-08-01T02:57:41.500Z,17.68
2022-08-01T03:00:09.457Z,17.84
2022-08-01T03:02:45.148Z,17.95
2022-08-01T03:05:22.394Z,18.02
2022-08-01T03:08:02.507Z,18.08
2022-08-01T03:10:35.258Z,18.10
2022-08-01T03:13:11.214Z,18.11
2022-08-01T03:15:46.416Z,18.12
2022-08-01T03:18:22.958Z,18.11
2022-08-01T03:20:58.958Z,18.09
2022-08-01T03:23:39.116Z,18.04
2022-08-01T03:26:13.539Z,17.99
2022-08-01T03:28:49.028Z,17.99
2022-08-01T03:31:23.017Z,17.94
2022-08-01T03:33:56.539Z,17.93
2022-08-01T03:36:32.738Z,17.97
2022-08-01T03:39:08.962Z,18.03
2022-08-01T03:41:45.500Z,18.03
2022-08-01T03:44:21.493Z,18.05
2022-08-01T03:46:58.810Z,18.09
2022-08-01T03:49:35.732Z,18.08
2022-08-01T03:52:13.742Z,18.07
2022-08-01T03:54:50.232Z,18.10
2022-08-01T03:57:36.294Z,18.14
2022-08-01T04:00:00.835Z,18.12
2022-08-01T04:02:35.042Z,18.06
2022-08-01T04:05:10.773Z,18.09
2022-08-01T04:07:45.764Z,18.13
2022-08-01T04:10:19.128Z,18.14
2022-08-01T04:12:52.472Z,18.21
2022-08-01T04:15:27.845Z,18.27
2022-08-01T04:18:01.618Z,18.30
2022-08-01T04:20:34.991Z,18.28
2022-08-01T04:23:10.903Z,18.24
2022-08-01T04:25:47.323Z,18.32
2022-08-01T04:28:22.101Z,18.42
2022-08-01T04:31:01.799Z,18.52
2022-08-01T04:33:36.919Z,18.62
2022-08-01T04:36:13.023Z,18.69
2022-08-01T04:38:48.254Z,18.78
2022-08-01T04:41:23.315Z,18.86
2022-08-01T04:43:56.915Z,18.95
2022-08-01T04:46:32.218Z,19.06
2022-08-01T04:49:10.123Z,19.15
2022-08-01T04:51:55.544Z,19.21
2022-08-01T04:54:30.905Z,19.37
2022-08-01T04:57:04.939Z,19.41
2022-08-01T04:59:44.020Z,19.47
2022-08-01T05:02:19.388Z,19.54
2022-08-01T05:04:53.410Z,19.57
2022-08-01T05:07:27.044Z,19.58
2022-08-01T05:10:02.192Z,19.70
2022-08-01T05:12:37.569Z,19.80
2022-08-01T05:15:15.456Z,19.86
2022-08-01T05:17:48.162Z,19.91
2022-08-01T05:20:21.593Z,19.94
2022-08-01T05:22:54.889Z,20.03
2022-08-01T05:25:57.787Z,20.16
2022-08-01T05:28:04.660Z,20.28
2022-08-01T05:30:38.013Z,20.32
2022-08-01T05:33:11.697Z,20.40
2022-08-01T05:35:48.277Z,20.48
2022-08-01T05:38:20.966Z,20.57
2022-08-01T05:40:56.416Z,20.61
2022-08-01T05:43:29.654Z,20.67
2022-08-01T05:46:03.323Z,20.75
2022-08-01T05:48:36.613Z,20.88
2022-08-01T05:51:15.504Z,20.97
2022-08-01T05:53:49.579Z,21.09
2022-08-01T05:56:23.550Z,21.21
2022-08-01T05:58:58.099Z,21.37
2022-08-01T06:01:34.585Z,21.61
2022-08-01T06:04:08.451Z,21.61
2022-08-01T06:06:43.893Z,21.67
2022-08-01T06:09:17.448Z,21.78
2022-08-01T06:11:57.391Z,21.95
2022-08-01T06:14:33.714Z,21.93
2022-08-01T06:17:21.462Z,21.97
2022-08-01T06:19:54.491Z,22.01
2022-08-01T06:22:30.357Z,22.15
2022-08-01T06:25:05.062Z,22.23
2022-08-01T06:27:39.195Z,22.16
2022-08-01T06:30:13.812Z,22.24
2022-08-01T06:32:47.103Z,22.20
2022-08-01T06:35:23.815Z,22.33
2022-08-01T06:37:57.036Z,22.49
2022-08-01T06:40:34.377Z,22.54
2022-08-01T06:43:11.396Z,22.69
2022-08-01T06:45:47.145Z,22.81
2022-08-01T06:48:20.715Z,22.94
2022-08-01T06:50:56.594Z,23.25
2022-08-01T06:53:32.649Z,23.42
2022-08-01T06:56:05.230Z,23.64
2022-08-01T06:58:38.753Z,24.11
2022-08-01T07:01:13.306Z,24.78
2022-08-01T07:03:54.328Z,25.78
2022-08-01T07:06:28.477Z,26.44
2022-08-01T07:09:08.458Z,27.21
2022-08-01T07:11:38.338Z,28.52
2022-08-01T07:14:12.914Z,29.62
2022-08-01T07:16:46.604Z,30.42
2022-08-01T07:19:22.030Z,30.25
2022-08-01T07:21:55.605Z,30.62
2022-08-01T07:24:30.306Z,31.30
2022-08-01T07:27:23.899Z,31.74
2022-08-01T07:29:59.140Z,31.58
2022-08-01T07:32:36.001Z,31.65
2022-08-01T07:35:11.029Z,32.07
2022-08-01T07:37:48.592Z,32.73
2022-08-01T07:40:20.058Z,32.90
2022-08-01T07:42:54.055Z,32.71
2022-08-01T07:46:13.553Z,33.34
2022-08-01T07:48:42.343Z,33.40
2022-08-01T07:51:15.769Z,33.99
2022-08-01T07:53:49.169Z,34.69
2022-08-01T07:56:24.161Z,34.23
2022-08-01T07:58:57.773Z,34.02
2022-08-01T08:01:31.331Z,34.35
2022-08-01T08:04:04.757Z,34.37
2022-08-01T08:06:38.130Z,34.85
2022-08-01T08:09:11.546Z,35.16
2022-08-01T08:11:48.183Z,36.55
2022-08-01T08:14:32.302Z,37.69
2022-08-01T08:16:59.134Z,38.05
2022-08-01T08:19:38.006Z,38.82
2022-08-01T08:22:12.167Z,38.84
2022-08-01T08:24:47.074Z,37.58
2022-08-01T08:27:20.809Z,36.24
2022-08-01T08:30:02.352Z,35.03
2022-08-01T08:32:50.622Z,34.38
2022-08-01T08:35:40.304Z,34.58
2022-08-01T08:37:59.673Z,34.69
2022-08-01T08:40:34.700Z,35.32
2022-08-01T08:43:09.448Z,35.30
2022-08-01T08:45:59.817Z,36.25
2022-08-01T08:48:18.947Z,37.64
2022-08-01T08:50:54.732Z,37.55
2022-08-01T08:53:34.712Z,36.28
2022-08-01T08:56:08.475Z,34.44
2022-08-01T08:58:43.597Z,33.65
2022-08-01T09:01:18.766Z,34.75
2022-08-01T09:03:52.509Z,36.54
2022-08-01T09:06:25.912Z,37.43
2022-08-01T09:09:01.512Z,36.52
2022-08-01T09:14:21.809Z,37.30
2022-08-01T09:17:06.798Z,35.97
2022-08-01T09:19:42.197Z,35.14
2022-08-01T09:22:19.373Z,33.80
2022-08-01T09:25:04.705Z,33.52
2022-08-01T09:27:44.124Z,34.18
2022-08-01T09:30:23.531Z,36.26
2022-08-01T09:33:06.269Z,38.14
2022-08-01T09:35:43.767Z,40.06
2022-08-01T09:38:18.017Z,40.42
2022-08-01T09:40:58.643Z,41.34
2022-08-01T09:43:37.660Z,41.66
2022-08-01T09:46:14.158Z,41.59
2022-08-01T09:49:07.464Z,41.08
2022-08-01T09:51:59.422Z,39.09
2022-08-01T09:54:21.261Z,39.40
2022-08-01T09:57:16.729Z,40.95
2022-08-01T10:00:00.753Z,40.92
2022-08-01T10:02:37.143Z,38.74
2022-08-01T10:05:20.818Z,36.62
2022-08-01T10:08:00.841Z,36.36
2022-08-01T10:10:37.483Z,37.90
2022-08-01T10:13:13.282Z,38.33
2022-08-01T10:15:49.489Z,39.54
2022-08-01T10:18:26.267Z,40.69
2022-08-01T10:21:03.032Z,41.82
2022-08-01T10:23:41.402Z,43.51
2022-08-01T10:26:16.370Z,44.95
2022-08-01T10:28:52.250Z,45.21
2022-08-01T10:31:32.410Z,45.90
2022-08-01T10:34:08.140Z,46.50
2022-08-01T10:36:41.247Z,47.12
2022-08-01T10:39:20.036Z,47.96
2022-08-01T10:41:51.040Z,48.49
2022-08-01T10:44:28.618Z,49.19
2022-08-01T10:47:10.113Z,47.54
2022-08-01T10:49:46.380Z,47.64
2022-08-01T10:52:22.340Z,45.62
2022-08-01T10:55:03.536Z,43.99
2022-08-01T10:57:52.686Z,42.64
2022-08-01T11:00:24.106Z,41.40
2022-08-01T11:03:04.605Z,39.57
2022-08-01T11:05:38.782Z,37.46
2022-08-01T11:08:16.148Z,36.00
2022-08-01T11:10:49.800Z,35.85
2022-08-01T11:13:58.499Z,36.08
2022-08-01T11:16:37.367Z,36.00
2022-08-01T11:19:12.025Z,35.50
2022-08-01T11:22:05.450Z,34.65
2022-08-01T11:24:59.292Z,34.07
2022-08-01T11:27:35.422Z,33.57
2022-08-01T11:30:30.860Z,33.50
2022-08-01T11:33:11.019Z,33.34
2022-08-01T11:35:40.394Z,33.22
2022-08-01T11:38:29.591Z,32.87
2022-08-01T11:41:15.642Z,32.67
2022-08-01T11:44:02.921Z,32.41
2022-08-01T11:46:51.953Z,33.41
2022-08-01T11:49:35.464Z,35.51
2022-08-01T11:52:11.322Z,37.45
2022-08-01T11:54:47.853Z,37.79
2022-08-01T11:57:24.442Z,38.84
2022-08-01T12:00:03.675Z,39.59
2022-08-01T12:02:37.987Z,40.51
2022-08-01T12:05:14.341Z,40.69
2022-08-01T12:07:53.416Z,39.55
2022-08-01T12:10:33.960Z,38.33
2022-08-01T12:13:09.558Z,37.12
2022-08-01T12:15:44.745Z,35.69
2022-08-01T12:18:18.291Z,34.72
2022-08-01T12:20:57.156Z,34.16
2022-08-01T12:23:26.742Z,33.64
2022-08-01T12:26:01.363Z,33.02
2022-08-01T12:28:42.461Z,32.35
2022-08-01T12:31:15.690Z,31.83
2022-08-01T12:33:49.128Z,31.27
2022-08-01T12:36:32.401Z,31.07
2022-08-01T12:39:06.192Z,30.94
2022-08-01T12:41:40.246Z,30.90
2022-08-01T12:44:17.998Z,30.94
2022-08-01T12:46:51.468Z,31.16
2022-08-01T12:49:27.800Z,30.83
2022-08-01T12:52:01.442Z,30.48
2022-08-01T12:54:56.683Z,30.42
2022-08-01T12:57:30.125Z,30.45
2022-08-01T13:00:16.173Z,30.58
2022-08-01T13:02:50.560Z,30.55
2022-08-01T13:05:26.843Z,30.52
2022-08-01T13:08:04.373Z,30.52
2022-08-01T13:10:36.425Z,30.55
2022-08-01T13:13:11.107Z,30.51
2022-08-01T13:15:47.171Z,31.29
2022-08-01T13:18:31.617Z,33.07
2022-08-01T13:21:18.971Z,33.06
2022-08-01T13:24:08.229Z,32.28
2022-08-01T13:26:46.758Z,31.48
2022-08-01T13:29:21.404Z,30.75
2022-08-01T13:31:54.712Z,30.36
2022-08-01T13:34:34.988Z,30.09
2022-08-01T13:37:08.995Z,29.92
2022-08-01T13:39:45.290Z,29.88
2022-08-01T13:42:19.926Z,29.78
2022-08-01T13:44:54.652Z,29.89
2022-08-01T13:47:31.729Z,30.04
2022-08-01T13:50:04.285Z,30.18
2022-08-01T13:52:37.705Z,30.23
2022-08-01T13:55:11.991Z,30.28
2022-08-01T13:57:46.358Z,31.21
2022-08-01T14:00:20.319Z,32.04
2022-08-01T14:02:53.907Z,32.66
2022-08-01T14:05:27.191Z,32.59
2022-08-01T14:08:00.522Z,32.49
2022-08-01T14:10:34.733Z,31.98
2022-08-01T14:13:11.772Z,31.83
2022-08-01T14:15:50.331Z,32.53
2022-08-01T14:18:23.503Z,33.07
2022-08-01T14:21:05.271Z,32.57
2022-08-01T14:23:36.523Z,31.96
2022-08-01T14:26:12.784Z,31.52
2022-08-01T14:28:46.152Z,31.08
2022-08-01T14:31:19.432Z,30.97
2022-08-01T14:33:52.865Z,30.90
2022-08-01T14:36:30.811Z,30.58
2022-08-01T14:39:01.571Z,30.12
2022-08-01T14:41:35.033Z,29.41
2022-08-01T14:44:10.121Z,29.07
2022-08-01T14:46:57.731Z,29.42
2022-08-01T14:49:20.847Z,29.97
2022-08-01T14:51:55.455Z,30.97
2022-08-01T14:54:29.478Z,31.48
2022-08-01T14:57:02.966Z,31.64
2022-08-01T14:59:37.123Z,30.85
2022-08-01T15:02:12.925Z,30.01
2022-08-01T15:04:46.557Z,29.27
2022-08-01T15:07:21.619Z,28.84
2022-08-01T15:09:55.971Z,28.65
2022-08-01T15:12:44.505Z,28.43
2022-08-01T15:15:05.099Z,28.44
2022-08-01T15:17:39.814Z,28.69
2022-08-01T15:20:14.311Z,29.14
2022-08-01T15:22:49.241Z,29.32
2022-08-01T15:25:24.954Z,29.46
2022-08-01T15:28:01.522Z,29.17
2022-08-01T15:30:44.783Z,28.58
2022-08-01T15:33:20.728Z,27.94
2022-08-01T15:35:56.409Z,27.48
2022-08-01T15:38:37.167Z,27.17
2022-08-01T15:41:11.619Z,26.90
2022-08-01T15:43:46.347Z,26.68
2022-08-01T15:46:24.380Z,26.63
2022-08-01T15:48:58.957Z,26.67
2022-08-01T15:51:37.513Z,26.87
2022-08-01T15:54:14.756Z,26.92
2022-08-01T15:56:51.608Z,26.95
2022-08-01T15:59:23.736Z,26.97
2022-08-01T16:01:56.943Z,27.00
2022-08-01T16:04:31.499Z,26.82
2022-08-01T16:07:06.369Z,26.55
2022-08-01T16:09:42.754Z,26.29
2022-08-01T16:12:16.823Z,26.18
2022-08-01T16:14:50.618Z,26.05
2022-08-01T16:17:24.121Z,25.87
2022-08-01T16:19:57.414Z,25.65
2022-08-01T16:22:30.930Z,25.58
2022-08-01T16:25:06.040Z,25.54
2022-08-01T16:27:39.389Z,25.51
2022-08-01T16:30:14.145Z,25.45
2022-08-01T16:32:52.090Z,25.24
2022-08-01T16:35:24.450Z,25.08
2022-08-01T16:37:57.847Z,25.01
2022-08-01T16:40:31.148Z,24.88
2022-08-01T16:43:08.898Z,24.74
2022-08-01T16:45:45.807Z,24.64
2022-08-01T16:48:24.546Z,24.53
2022-08-01T16:51:04.764Z,24.43
2022-08-01T16:53:39.031Z,24.35
2022-08-01T16:56:16.731Z,24.29
2022-08-01T16:58:51.993Z,24.21
2022-08-01T17:04:19.397Z,24.12
2022-08-01T17:07:02.156Z,24.08
2022-08-01T17:09:39.888Z,24.05
2022-08-01T17:15:09.921Z,23.95
2022-08-01T17:17:54.445Z,23.90
2022-08-01T17:20:31.095Z,23.89
2022-08-01T17:23:05.778Z,23.83
2022-08-01T17:28:34.713Z,23.73
2022-08-01T17:31:17.612Z,23.69
2022-08-01T17:33:59.426Z,23.60
2022-08-01T17:36:37.390Z,23.49
2022-08-01T17:39:23.490Z,23.39
2022-08-01T17:42:11.348Z,23.30
2022-08-01T17:44:58.836Z,23.25
2022-08-01T17:47:50.479Z,23.27
2022-08-01T17:50:14.027Z,23.25
2022-08-01T17:52:51.931Z,23.21
2022-08-01T17:55:55.657Z,23.19
2022-08-01T17:58:04.248Z,23.17
2022-08-01T18:00:45.138Z,23.17
2022-08-01T18:06:24.348Z,23.07
2022-08-01T18:09:09.556Z,23.01
2022-08-01T18:14:40.702Z,22.90
2022-08-01T18:17:33.071Z,22.76
2022-08-01T18:25:58.781Z,22.34
2022-08-01T18:28:38.012Z,22.20
2022-08-01T18:31:11.378Z,22.12
2022-08-01T18:33:49.261Z,22.03
2022-08-01T18:36:32.263Z,21.98
2022-08-01T18:41:48.309Z,21.98
2022-08-01T18:44:25.528Z,21.82
2022-08-01T18:47:01.022Z,21.78
2022-08-01T18:49:35.789Z,21.76
2022-08-01T18:52:12.122Z,21.72
2022-08-01T18:57:42.822Z,21.69
2022-08-01T19:00:18.387Z,21.69
2022-08-01T19:02:53.917Z,21.70
2022-08-01T19:05:29.059Z,21.70
2022-08-01T19:08:10.628Z,21.73
2022-08-01T19:10:46.837Z,21.74
2022-08-01T19:13:40.173Z,21.78
2022-08-01T19:16:32.499Z,21.64
2022-08-01T19:22:02.203Z,21.75
2022-08-01T19:24:40.424Z,21.73
2022-08-01T19:27:20.599Z,21.73
2022-08-01T19:30:00.536Z,21.73
2022-08-01T19:35:36.770Z,21.66
2022-08-01T19:38:13.408Z,21.60
2022-08-01T19:40:50.504Z,21.58
2022-08-01T19:43:24.153Z,21.54
2022-08-01T19:46:03.259Z,21.46
2022-08-01T19:48:39.574Z,21.42
2022-08-01T19:51:22.277Z,21.38
2022-08-01T19:53:58.761Z,21.33
2022-08-01T19:56:39.285Z,21.31
2022-08-01T19:59:23.477Z,21.29
2022-08-01T20:02:03.449Z,21.27
2022-08-01T20:04:42.421Z,21.23
2022-08-01T20:07:23.777Z,21.22
2022-08-01T20:09:59.595Z,21.19
2022-08-01T20:12:55.401Z,21.16
2022-08-01T20:15:45.848Z,21.13
2022-08-01T20:18:21.597Z,21.07
2022-08-01T20:20:57.501Z,21.03
2022-08-01T20:26:26.115Z,20.92
2022-08-01T20:29:03.157Z,20.82
2022-08-01T20:31:43.011Z,20.66
2022-08-01T20:34:17.284Z,20.56
2022-08-01T20:36:54.709Z,20.52
2022-08-01T20:39:29.855Z,20.44
2022-08-01T20:42:05.023Z,20.33
2022-08-01T20:44:40.490Z,20.22
2022-08-01T20:47:14.481Z,20.16
2022-08-01T20:49:48.075Z,20.12
2022-08-01T20:52:22.978Z,20.09
2022-08-01T20:54:57.736Z,20.09
2022-08-01T20:57:33.995Z,20.09
2022-08-01T21:00:10.116Z,20.07
2022-08-01T21:02:48.939Z,20.04
2022-08-01T21:05:29.483Z,20.05
2022-08-01T21:08:05.891Z,20.05
2022-08-01T21:10:41.178Z,20.02
2022-08-01T21:13:20.984Z,19.94
2022-08-01T21:16:23.069Z,19.95
2022-08-01T21:18:34.965Z,19.93
2022-08-01T21:21:08.375Z,19.89
2022-08-01T21:23:46.750Z,19.83
2022-08-01T21:26:22.182Z,19.79
2022-08-01T21:28:59.344Z,19.80
2022-08-01T21:31:40.368Z,19.80
2022-08-01T21:37:10.978Z,19.89
2022-08-01T21:39:46.755Z,19.80
2022-08-01T21:42:25.796Z,19.89
2022-08-01T21:45:01.573Z,19.92
2022-08-01T21:47:37.134Z,19.92
2022-08-01T21:50:11.269Z,19.81
2022-08-01T21:52:47.537Z,19.72
2022-08-01T21:55:35.723Z,19.67
2022-08-01T21:58:16.568Z,19.59
2022-08-01T22:00:53.257Z,19.48
2022-08-01T22:03:28.739Z,19.41
2022-08-01T22:06:03.635Z,19.39
2022-08-01T22:08:39.369Z,19.35
2022-08-01T22:11:15.408Z,19.31
2022-08-01T22:13:48.516Z,19.28
2022-08-01T22:16:22.620Z,19.28
2022-08-01T22:18:56.969Z,19.31
2022-08-01T22:21:31.355Z,19.33
2022-08-01T22:24:06.459Z,19.33
2022-08-01T22:26:41.927Z,19.25
2022-08-01T22:29:18.464Z,19.20
2022-08-01T22:31:54.924Z,19.21
2022-08-01T22:34:28.143Z,19.23
2022-08-01T22:37:01.760Z,19.29
2022-08-01T22:39:38.355Z,19.29
2022-08-01T22:42:12.731Z,19.24
2022-08-01T22:44:52.060Z,19.25
2022-08-01T22:47:31.158Z,19.26
2022-08-01T22:50:06.912Z,19.22
2022-08-01T22:55:26.009Z,19.29
2022-08-01T22:58:03.605Z,19.18
2022-08-01T23:00:39.069Z,19.23
2022-08-01T23:03:15.837Z,19.29
2022-08-01T23:05:52.762Z,19.33
2022-08-01T23:08:27.083Z,19.30
2022-08-01T23:11:02.396Z,19.27
2022-08-01T23:13:35.819Z,19.26
2022-08-01T23:16:09.235Z,19.26
2022-08-01T23:18:44.510Z,19.24
2022-08-01T23:21:20.577Z,19.24
2022-08-01T23:23:55.330Z,19.25
2022-08-01T23:26:30.509Z,19.28
2022-08-01T23:29:03.749Z,19.28
2022-08-01T23:32:00.657Z,19.24
2022-08-01T23:34:15.403Z,19.17
2022-08-01T23:36:46.722Z,19.07
2022-08-01T23:39:19.985Z,18.96
2022-08-01T23:42:07.700Z,18.87
2022-08-01T23:44:27.989Z,18.75
2022-08-01T23:47:01.352Z,18.67
2022-08-01T23:49:34.941Z,18.58
2022-08-01T23:52:10.080Z,18.56
2022-08-01T23:54:43.859Z,18.59
2022-08-01T23:57:18.294Z,18.66
2022-08-01T23:59:52.969Z,18.68
